Time;durP1;ratioP1;P1;durP2;ratioP2;P2;SDS_P1;SDS_P2;PMS_P1;PMS_P2;Temp;Humidity;BMP_temperature;BMP_pressure;BME280_temperature;BME280_humidity;BME280_pressure;Samples;Min_cycle;Max_cycle;Signal;HPM_P1;HPM_P2
2021/06/20 00:00:10;;;;;;;6.95;6.30;;;;;;;20.15;72.45;100651.69;4852067;28;103789;-59
2021/06/20 00:02:37;;;;;;;7.03;6.43;;;;;;;20.15;72.10;100657.19;4853944;28;102498;-59
2021/06/20 00:05:05;;;;;;;7.53;6.75;;;;;;;20.14;72.34;100661.13;4854109;28;101996;-60
2021/06/20 00:07:32;;;;;;;6.87;6.27;;;;;;;20.15;72.28;100671.81;4854566;28;103002;-60
2021/06/20 00:10:01;;;;;;;7.50;6.68;;;;;;;20.14;72.13;100677.69;4853022;28;104159;-59
2021/06/20 00:12:28;;;;;;;7.22;6.53;;;;;;;20.15;72.32;100682.06;4855068;28;105395;-60
2021/06/20 00:14:54;;;;;;;7.53;6.65;;;;;;;20.15;72.30;100687.59;4852560;28;102434;-60
2021/06/20 00:17:21;;;;;;;6.78;6.22;;;;;;;20.14;72.24;100697.03;4852594;28;102435;-59
2021/06/20 00:19:47;;;;;;;7.10;6.50;;;;;;;20.14;72.22;100686.00;4853106;28;104374;-59
2021/06/20 00:22:14;;;;;;;6.35;5.85;;;;;;;20.15;72.25;100709.69;4852132;28;102705;-59
2021/06/20 00:24:40;;;;;;;6.72;6.03;;;;;;;20.16;72.18;100705.81;4854188;28;102354;-59
2021/06/20 00:27:08;;;;;;;6.82;6.20;;;;;;;20.16;72.33;100714.09;4856324;28;102849;-59
2021/06/20 00:29:35;;;;;;;6.53;6.03;;;;;;;20.15;72.11;100718.78;4853034;28;102606;-59
2021/06/20 00:32:02;;;;;;;6.57;5.97;;;;;;;20.15;72.33;100707.75;4853974;28;102947;-59
2021/06/20 00:34:30;;;;;;;7.77;6.73;;;;;;;20.15;72.14;100704.16;4848250;28;102794;-60
2021/06/20 00:36:56;;;;;;;7.32;5.78;;;;;;;20.17;72.16;100674.25;4855214;28;102583;-59
2021/06/20 00:39:22;;;;;;;6.88;6.20;;;;;;;20.15;72.37;100655.25;4855416;28;103918;-59
2021/06/20 00:41:49;;;;;;;7.03;6.38;;;;;;;20.14;72.42;100625.19;4857402;28;102560;-59
2021/06/20 00:44:17;;;;;;;7.13;6.53;;;;;;;20.13;72.55;100612.53;4859980;28;102542;-59
2021/06/20 00:46:47;;;;;;;6.93;6.32;;;;;;;20.14;72.33;100597.56;4856714;28;102465;-59
2021/06/20 00:49:13;;;;;;;7.13;6.53;;;;;;;20.13;72.42;100574.66;4851349;28;104314;-59
2021/06/20 00:51:40;;;;;;;7.30;6.13;;;;;;;20.12;72.20;100562.00;4853711;28;102103;-59
2021/06/20 00:54:06;;;;;;;7.03;6.35;;;;;;;20.13;72.22;100576.63;4850686;28;102186;-60
2021/06/20 00:56:33;;;;;;;7.00;6.40;;;;;;;20.13;72.53;100579.38;4855423;28;102447;-59
2021/06/20 00:59:03;;;;;;;8.20;6.03;;;;;;;20.13;72.55;100579.38;4852365;28;104421;-60
2021/06/20 01:01:33;;;;;;;7.32;6.00;;;;;;;20.12;72.41;100592.41;4851256;28;102282;-59
2021/06/20 01:04:00;;;;;;;6.70;6.15;;;;;;;20.13;72.63;100598.72;4850556;28;102518;-60
2021/06/20 01:06:28;;;;;;;7.32;5.90;;;;;;;20.13;72.43;100607.81;4854349;28;102867;-60
2021/06/20 01:08:55;;;;;;;7.30;6.03;;;;;;;20.15;72.24;100621.28;4853221;28;104011;-59
2021/06/20 01:11:22;;;;;;;6.25;5.38;;;;;;;20.15;72.28;100615.75;4850587;28;102590;-59
2021/06/20 01:13:49;;;;;;;6.40;5.82;;;;;;;20.15;72.46;100611.03;4852730;28;102154;-60
2021/06/20 01:16:15;;;;;;;6.63;5.93;;;;;;;20.13;72.14;100601.50;4853904;28;102293;-59
2021/06/20 01:18:44;;;;;;;6.38;5.88;;;;;;;20.14;72.16;100608.63;4854322;28;103805;-59
2021/06/20 01:21:11;;;;;;;5.80;5.30;;;;;;;20.14;72.50;100592.03;4851388;28;102441;-59
2021/06/20 01:23:39;;;;;;;6.70;6.20;;;;;;;20.14;72.57;100592.84;4850162;28;102460;-59
2021/06/20 01:26:06;;;;;;;6.88;6.28;;;;;;;20.14;72.28;100579.03;4853760;28;102341;-59
2021/06/20 01:28:41;;;;;;;6.50;6.00;;;;;;;20.15;72.54;100588.94;4850181;28;102717;-59
2021/06/20 01:31:11;;;;;;;6.35;5.65;;;;;;;20.16;72.20;100587.00;4850416;28;102353;-59
2021/06/20 01:33:38;;;;;;;5.88;5.38;;;;;;;20.16;72.19;100589.78;4855096;28;102578;-59
2021/06/20 01:36:07;;;;;;;;;;;;;;;20.16;72.24;100589.78;4862912;28;102527;-59
2021/06/20 01:38:33;;;;;;;6.97;5.80;;;;;;;20.17;72.37;100589.41;4854719;28;104912;-59
2021/06/20 01:41:01;;;;;;;6.45;5.85;;;;;;;20.16;72.64;100582.28;4865442;28;103756;-63
2021/06/20 01:43:28;;;;;;;6.30;5.70;;;;;;;20.15;72.52;100563.25;4869736;28;102248;-59
2021/06/20 01:45:55;;;;;;;7.55;6.75;;;;;;;20.13;72.42;100558.09;4867522;28;101998;-59
2021/06/20 01:48:21;;;;;;;6.40;5.90;;;;;;;20.13;72.55;100549.00;4854247;28;102783;-59
2021/06/20 01:50:48;;;;;;;6.07;5.47;;;;;;;20.12;72.58;100544.59;4853381;28;102458;-59
2021/06/20 01:53:16;;;;;;;6.10;5.60;;;;;;;20.13;72.55;100529.66;4856168;28;102482;-60
2021/06/20 01:55:45;;;;;;;6.28;5.68;;;;;;;20.14;72.79;100547.84;4855916;28;102625;-60
2021/06/20 01:58:16;;;;;;;6.43;5.93;;;;;;;20.11;72.42;100556.81;4851893;28;103648;-60
2021/06/20 02:00:44;;;;;;;6.07;5.57;;;;;;;20.13;72.84;100584.91;4855017;28;102307;-60
2021/06/20 02:03:13;;;;;;;6.07;5.60;;;;;;;20.13;72.57;100607.00;4853366;28;102443;-60
2021/06/20 02:05:41;;;;;;;6.50;5.90;;;;;;;20.13;72.56;100618.06;4854280;28;103058;-59
2021/06/20 02:08:07;;;;;;;6.32;5.75;;;;;;;20.13;72.36;100623.59;4850631;28;103744;-60
2021/06/20 02:10:35;;;;;;;6.72;6.03;;;;;;;20.12;72.13;100617.25;4846783;28;102569;-59
2021/06/20 02:13:03;;;;;;;6.28;5.70;;;;;;;20.10;72.48;100608.50;4852265;28;102284;-60
2021/06/20 02:15:31;;;;;;;6.67;6.07;;;;;;;20.11;72.41;100607.34;4853239;28;102380;-60
2021/06/20 02:18:14;;;;;;;6.80;6.18;;;;;;;20.10;72.64;100619.53;4848864;28;103747;-60
2021/06/20 02:20:41;;;;;;;5.78;5.28;;;;;;;20.10;72.65;100636.13;4852673;28;102138;-59
2021/06/20 02:23:08;;;;;;;6.72;6.13;;;;;;;20.10;72.75;100652.69;4850068;28;102695;-60
2021/06/20 02:25:36;;;;;;;5.85;5.40;;;;;;;20.08;72.62;100637.59;4852044;28;102745;-60
2021/06/20 02:28:04;;;;;;;6.18;5.68;;;;;;;20.10;72.86;100651.88;4850452;28;103884;-60
2021/06/20 02:30:32;;;;;;;6.78;6.15;;;;;;;20.07;72.66;100663.63;4851886;28;102357;-60
2021/06/20 02:32:58;;;;;;;6.83;6.23;;;;;;;20.08;72.59;100670.75;4851055;28;104062;-59
2021/06/20 02:35:25;;;;;;;6.25;5.75;;;;;;;20.06;72.89;100673.06;4852715;28;102358;-60
2021/06/20 02:37:53;;;;;;;6.22;5.70;;;;;;;20.06;72.86;100684.09;4846802;28;104924;-60
2021/06/20 02:40:19;;;;;;;6.40;5.80;;;;;;;20.06;73.17;100689.63;4852078;28;102534;-59
2021/06/20 02:42:46;;;;;;;6.50;6.00;;;;;;;20.05;73.03;100690.75;4859069;28;102249;-59
2021/06/20 02:45:18;;;;;;;6.07;5.50;;;;;;;20.06;73.07;100703.44;4839843;29;102838;-60
2021/06/20 02:47:47;;;;;;;6.65;6.05;;;;;;;20.01;72.65;100695.34;4860464;28;103896;-60
2021/06/20 02:50:15;;;;;;;6.68;6.07;;;;;;;20.03;72.96;100679.25;4853430;28;102306;-60
2021/06/20 02:52:43;;;;;;;6.22;5.72;;;;;;;20.00;73.11;100646.78;4851372;28;102551;-59
2021/06/20 02:55:10;;;;;;;5.65;5.15;;;;;;;20.00;72.96;100621.91;4850409;28;102316;-59
2021/06/20 02:57:37;;;;;;;6.75;6.15;;;;;;;19.99;72.79;100612.81;4840753;28;103829;-60
2021/06/20 03:00:06;;;;;;;6.57;5.97;;;;;;;20.00;72.99;100605.34;4856702;28;102344;-60
2021/06/20 03:02:32;;;;;;;6.28;5.68;;;;;;;20.00;72.77;100614.41;4856965;28;102096;-59
2021/06/20 03:05:01;;;;;;;6.00;5.43;;;;;;;19.99;73.14;100606.50;4852891;28;102549;-59
2021/06/20 03:07:28;;;;;;;5.70;5.20;;;;;;;19.99;73.00;100617.53;4851418;28;103464;-59
2021/06/20 03:09:55;;;;;;;6.05;5.55;;;;;;;19.99;72.88;100623.88;4843834;28;102257;-60
2021/06/20 03:12:22;;;;;;;6.20;5.70;;;;;;;19.99;73.09;100606.50;4855635;28;102504;-59
2021/06/20 03:14:49;;;;;;;6.13;5.55;;;;;;;19.97;72.81;100581.16;4854861;28;102801;-60
2021/06/20 03:17:16;;;;;;;5.95;5.55;;;;;;;19.96;72.87;100579.53;4854357;28;103935;-59
2021/06/20 03:19:44;;;;;;;5.82;5.32;;;;;;;19.97;73.01;100586.66;4854943;28;102548;-59
2021/06/20 03:22:13;;;;;;;6.95;5.88;;;;;;;19.96;72.97;100585.06;4865883;28;102297;-59
2021/06/20 03:24:41;;;;;;;;;;;;;;;19.96;72.75;100601.63;4855935;28;102498;-59
2021/06/20 03:27:08;;;;;;;5.65;5.15;;;;;;;19.98;73.04;100593.81;4850255;28;102650;-60
2021/06/20 03:29:35;;;;;;;5.70;5.30;;;;;;;19.96;72.73;100583.09;4853569;28;102716;-60
2021/06/20 03:32:03;;;;;;;5.85;5.28;;;;;;;19.97;73.06;100572.84;4854566;28;102417;-59
2021/06/20 03:34:32;;;;;;;6.45;5.85;;;;;;;19.97;72.87;100559.84;4854610;28;102708;-59
2021/06/20 03:36:59;;;;;;;6.20;5.70;;;;;;;19.96;72.90;100538.91;4852290;28;104071;-59
2021/06/20 03:39:27;;;;;;;5.63;5.13;;;;;;;19.96;73.03;100529.81;4853043;28;102130;-59
2021/06/20 03:41:54;;;;;;;6.20;5.70;;;;;;;19.97;73.09;100537.75;4854942;28;102527;-60
2021/06/20 03:44:20;;;;;;;5.57;5.18;;;;;;;19.97;72.94;100543.28;4854956;28;102755;-60
2021/06/20 03:46:47;;;;;;;5.97;5.50;;;;;;;19.99;72.71;100556.78;4850074;28;103817;-59
2021/06/20 03:49:13;;;;;;;5.28;4.85;;;;;;;19.98;72.78;100600.16;4851769;28;102444;-59
2021/06/20 03:51:40;;;;;;;5.82;5.43;;;;;;;20.00;73.17;100631.00;4853597;28;102353;-60
2021/06/20 03:54:07;;;;;;;5.93;5.43;;;;;;;20.00;72.57;100616.38;4853205;28;102407;-60
2021/06/20 03:56:35;;;;;;;5.70;5.22;;;;;;;19.98;72.68;100588.28;4854362;28;104813;-60
2021/06/20 03:59:02;;;;;;;5.57;5.13;;;;;;;19.97;72.92;100587.47;4857248;28;102538;-59
2021/06/20 04:01:28;;;;;;;5.80;5.30;;;;;;;19.98;72.74;100621.41;4854971;28;102282;-60
2021/06/20 04:03:55;;;;;;;5.53;5.13;;;;;;;20.00;73.11;100610.84;4855799;28;102911;-60
2021/06/20 04:06:21;;;;;;;5.72;5.22;;;;;;;19.99;72.77;100623.06;4853861;28;103776;-60
2021/06/20 04:08:48;;;;;;;5.63;5.13;;;;;;;19.99;72.89;100606.50;4855171;28;102297;-60
2021/06/20 04:11:15;;;;;;;6.22;5.13;;;;;;;19.98;73.19;100615.91;4851880;28;102322;-59
2021/06/20 04:13:43;;;;;;;5.47;5.05;;;;;;;19.98;73.08;100608.44;4851182;28;102654;-59
2021/06/20 04:16:10;;;;;;;5.43;4.93;;;;;;;19.99;73.25;100614.78;4852245;28;103989;-60
2021/06/20 04:18:38;;;;;;;5.25;4.85;;;;;;;19.98;72.88;100616.72;4850621;28;102435;-60
2021/06/20 04:21:05;;;;;;;5.32;4.82;;;;;;;20.00;73.01;100619.16;4854264;28;102429;-60
2021/06/20 04:23:32;;;;;;;4.68;4.38;;;;;;;19.98;72.90;100615.91;4854722;28;102065;-59
2021/06/20 04:25:58;;;;;;;5.05;4.70;;;;;;;19.98;72.99;100588.28;4851295;28;103850;-60
2021/06/20 04:28:25;;;;;;;5.32;4.90;;;;;;;19.98;72.84;100593.81;4850381;28;102424;-59
2021/06/20 04:30:56;;;;;;;5.50;4.97;;;;;;;19.99;72.94;100598.19;4852254;28;103558;-59
2021/06/20 04:33:23;;;;;;;4.80;4.50;;;;;;;20.00;72.94;100586.00;4854609;28;103531;-60
2021/06/20 04:35:50;;;;;;;5.18;4.47;;;;;;;19.98;72.72;100571.69;4853035;28;103942;-59
2021/06/20 04:38:18;;;;;;;5.15;4.63;;;;;;;19.99;72.71;100576.91;4852087;28;103347;-59
2021/06/20 04:40:45;;;;;;;4.97;4.57;;;;;;;19.99;73.02;100584.38;4852750;28;102231;-60
2021/06/20 04:43:25;;;;;;;5.38;4.63;;;;;;;19.99;72.99;100589.91;4854023;28;102431;-59
2021/06/20 04:45:53;;;;;;;4.82;4.53;;;;;;;19.99;72.99;100595.44;4852350;28;103893;-59
2021/06/20 04:48:19;;;;;;;5.63;4.68;;;;;;;19.98;72.81;100588.28;4852660;28;102635;-60
2021/06/20 04:50:47;;;;;;;5.05;4.55;;;;;;;20.00;72.97;100580.47;4852140;28;102806;-59
2021/06/20 04:53:15;;;;;;;5.57;5.07;;;;;;;19.99;72.86;100579.66;4852152;28;102743;-59
2021/06/20 04:55:41;;;;;;;4.93;4.50;;;;;;;20.00;72.94;100594.28;4851838;28;103904;-59
2021/06/20 04:58:08;;;;;;;4.70;4.30;;;;;;;20.00;73.12;100594.28;4853252;28;102648;-59
2021/06/20 05:00:34;;;;;;;5.47;4.97;;;;;;;19.99;72.59;100596.25;4848972;28;102947;-59
2021/06/20 05:03:02;;;;;;;5.20;4.72;;;;;;;20.01;73.13;100604.19;4852658;28;103270;-60
2021/06/20 05:05:29;;;;;;;4.85;4.30;;;;;;;19.99;72.81;100585.19;4853229;28;103412;-59
2021/06/20 05:07:55;;;;;;;4.90;4.50;;;;;;;20.01;72.62;100598.66;4853831;28;102513;-60
2021/06/20 05:10:22;;;;;;;4.85;4.30;;;;;;;20.01;73.00;100599.47;4851545;28;102753;-60
2021/06/20 05:12:54;;;;;;;4.70;4.30;;;;;;;20.02;73.00;100600.28;4854577;28;102862;-60
2021/06/20 05:15:21;;;;;;;4.88;4.47;;;;;;;20.01;72.88;100599.47;4853336;28;102603;-60
2021/06/20 05:17:47;;;;;;;4.88;4.45;;;;;;;20.02;72.85;100600.28;4852135;28;102847;-59
2021/06/20 05:20:16;;;;;;;4.45;4.10;;;;;;;20.03;73.03;100607.44;4851988;28;102683;-59
2021/06/20 05:22:42;;;;;;;4.80;4.40;;;;;;;20.02;72.70;100611.34;4853616;28;102354;-59
2021/06/20 05:25:10;;;;;;;4.07;3.78;;;;;;;20.04;72.83;100609.84;4852401;28;103954;-59
2021/06/20 05:27:36;;;;;;;4.07;3.78;;;;;;;20.04;72.94;100601.56;4854155;28;102345;-59
2021/06/20 05:30:04;;;;;;;4.15;3.80;;;;;;;20.05;73.14;100594.06;4850492;28;102195;-59
2021/06/20 05:32:31;;;;;;;4.30;4.00;;;;;;;20.04;72.72;100582.22;4852145;28;104300;-59
2021/06/20 05:34:57;;;;;;;4.68;4.13;;;;;;;20.05;72.96;100591.31;4849837;28;103860;-58
2021/06/20 05:37:25;;;;;;;3.80;3.50;;;;;;;20.06;72.68;100595.69;4852131;28;102896;-60
2021/06/20 05:39:52;;;;;;;4.30;3.90;;;;;;;20.07;72.86;100602.84;4850991;28;102455;-59
2021/06/20 05:42:19;;;;;;;4.30;3.85;;;;;;;20.08;72.85;100599.72;4851107;28;105375;-59
2021/06/20 05:44:45;;;;;;;4.20;3.80;;;;;;;20.09;72.63;100595.03;4847319;28;104341;-60
2021/06/20 05:47:12;;;;;;;4.00;3.70;;;;;;;20.09;72.91;100597.78;4851645;28;102445;-60
2021/06/20 05:49:38;;;;;;;4.18;3.78;;;;;;;20.10;72.81;100593.88;4847106;28;102623;-60
2021/06/20 05:52:05;;;;;;;3.97;3.67;;;;;;;20.11;72.93;100592.72;4852871;28;102402;-60
2021/06/20 05:54:33;;;;;;;3.80;3.50;;;;;;;20.11;72.91;100587.19;4849766;28;103049;-60
2021/06/20 05:56:59;;;;;;;4.20;3.90;;;;;;;20.11;72.82;100584.44;4850116;28;102291;-60
2021/06/20 05:59:26;;;;;;;4.10;3.80;;;;;;;20.13;72.96;100602.28;4850326;28;102483;-60
2021/06/20 06:01:53;;;;;;;4.38;3.90;;;;;;;20.13;72.86;100598.72;4852297;28;102325;-60
2021/06/20 06:04:21;;;;;;;5.00;4.50;;;;;;;20.14;72.81;100603.09;4851215;28;104031;-60
2021/06/20 06:06:47;;;;;;;4.57;4.18;;;;;;;20.14;72.75;100597.56;4849170;28;102158;-61
2021/06/20 06:09:15;;;;;;;4.50;4.15;;;;;;;20.12;73.19;100589.63;4854277;28;102367;-60
2021/06/20 06:11:43;;;;;;;5.78;4.05;;;;;;;20.14;72.74;100597.56;4865857;28;101829;-60
2021/06/20 06:14:09;;;;;;;4.55;4.25;;;;;;;20.14;72.71;100601.13;4861158;28;104019;-61
2021/06/20 06:16:36;;;;;;;5.15;4.22;;;;;;;20.15;72.93;100599.97;4871034;28;102839;-60
2021/06/20 06:19:02;;;;;;;3.97;3.47;;;;;;;20.15;73.20;100599.19;4850372;28;102921;-61
2021/06/20 06:21:29;;;;;;;4.30;3.90;;;;;;;20.15;73.03;100582.59;4856152;28;102378;-60
2021/06/20 06:23:55;;;;;;;4.97;3.92;;;;;;;20.15;73.00;100585.38;4848570;28;105821;-60
2021/06/20 06:26:22;;;;;;;4.85;4.32;;;;;;;20.17;73.22;100585.84;4857257;28;102090;-59
2021/06/20 06:28:51;;;;;;;5.55;4.63;;;;;;;20.18;73.08;100587.47;4855970;28;101990;-60
2021/06/20 06:31:18;;;;;;;5.18;4.65;;;;;;;20.19;72.86;100594.59;4852554;28;102168;-60
2021/06/20 06:33:44;;;;;;;4.72;4.30;;;;;;;20.19;72.99;100589.06;4851642;28;103868;-60
2021/06/20 06:36:11;;;;;;;5.82;4.35;;;;;;;20.19;73.14;100591.81;4854004;28;102672;-60
2021/06/20 06:38:38;;;;;;;5.32;3.92;;;;;;;20.22;72.86;100604.97;4850832;28;102355;-60
2021/06/20 06:41:05;;;;;;;4.32;3.80;;;;;;;20.23;72.67;100598.31;4852716;28;102643;-60
2021/06/20 06:43:32;;;;;;;4.22;3.83;;;;;;;20.26;72.39;100589.31;4852501;28;104026;-60
2021/06/20 06:46:00;;;;;;;6.22;4.00;;;;;;;20.30;72.42;100595.81;4850826;28;102033;-59
2021/06/20 06:48:27;;;;;;;5.57;3.55;;;;;;;20.32;72.10;100595.47;4854337;28;103648;-60
2021/06/20 06:50:54;;;;;;;4.10;3.70;;;;;;;20.34;72.54;100591.22;4860814;28;102469;-60
2021/06/20 06:53:20;;;;;;;5.03;3.53;;;;;;;20.35;72.35;100581.75;4851977;28;104170;-60
2021/06/20 06:55:47;;;;;;;4.25;3.50;;;;;;;20.36;72.07;100588.91;4851105;28;103204;-60
2021/06/20 06:58:14;;;;;;;4.63;3.50;;;;;;;20.37;72.13;100578.66;4851509;28;102463;-60
2021/06/20 07:00:40;;;;;;;4.15;3.50;;;;;;;20.38;72.19;100575.56;4864619;28;102695;-60
2021/06/20 07:03:08;;;;;;;7.60;3.78;;;;;;;20.39;71.88;100568.88;4849207;28;103962;-60
2021/06/20 07:05:35;;;;;;;4.22;3.83;;;;;;;20.42;72.46;100572.13;4848448;28;102387;-60
2021/06/20 07:08:01;;;;;;;6.90;4.10;;;;;;;20.43;72.54;100566.25;4851679;28;102454;-60
2021/06/20 07:10:28;;;;;;;4.97;4.00;;;;;;;20.44;72.42;100570.59;4849411;28;102728;-60
2021/06/20 07:12:54;;;;;;;5.40;3.85;;;;;;;20.45;72.36;100568.66;4850271;28;105396;-60
2021/06/20 07:15:21;;;;;;;5.88;3.92;;;;;;;20.47;72.58;100564.41;4850723;28;102299;-61
2021/06/20 07:17:48;;;;;;;6.45;3.97;;;;;;;20.49;72.71;100555.78;4852507;28;102481;-60
2021/06/20 07:20:17;;;;;;;6.22;3.75;;;;;;;20.50;72.33;100562.94;4853407;28;102734;-60
2021/06/20 07:22:44;;;;;;;8.32;4.43;;;;;;;20.52;72.55;100569.75;4851240;28;102698;-60
2021/06/20 07:25:13;;;;;;;5.63;3.42;;;;;;;20.56;72.61;100565.16;4850950;28;102164;-60
2021/06/20 07:27:39;;;;;;;4.55;3.97;;;;;;;20.56;72.48;100569.88;4851715;28;102538;-60
2021/06/20 07:30:09;;;;;;;5.50;3.78;;;;;;;20.56;72.77;100580.94;4850419;28;102440;-60
2021/06/20 07:32:36;;;;;;;6.15;4.07;;;;;;;20.57;72.48;100579.78;4849080;28;103785;-60
2021/06/20 07:35:04;;;;;;;5.63;3.95;;;;;;;20.57;72.13;100577.03;4850442;28;102314;-61
2021/06/20 07:37:32;;;;;;;9.80;4.20;;;;;;;20.58;72.22;100575.88;4851166;28;102320;-60
2021/06/20 07:40:00;;;;;;;7.78;3.90;;;;;;;20.58;72.18;100578.63;4851762;28;102522;-60
2021/06/20 07:42:27;;;;;;;5.72;3.88;;;;;;;20.59;72.43;100580.22;4852242;28;103635;-60
2021/06/20 07:44:54;;;;;;;5.07;3.85;;;;;;;20.59;72.31;100574.69;4849399;28;102541;-60
2021/06/20 07:47:20;;;;;;;6.38;3.97;;;;;;;20.59;72.40;100581.06;4855103;28;102534;-60
2021/06/20 07:49:46;;;;;;;7.32;4.00;;;;;;;20.59;72.51;100589.38;4853683;28;102667;-60
2021/06/20 07:52:13;;;;;;;4.88;3.20;;;;;;;20.59;72.48;100591.28;4853392;28;103715;-60
2021/06/20 07:54:49;;;;;;;6.65;3.65;;;;;;;20.58;72.13;100595.22;4854496;28;102648;-60
2021/06/20 07:57:16;;;;;;;6.28;3.88;;;;;;;20.58;72.39;100595.22;4856211;28;102321;-61
2021/06/20 07:59:43;;;;;;;7.60;3.92;;;;;;;20.56;72.46;100598.34;4854391;28;102479;-60
2021/06/20 08:02:10;;;;;;;9.57;5.32;;;;;;;20.56;72.52;100597.53;4854564;28;103924;-60
2021/06/20 08:04:36;;;;;;;9.38;4.35;;;;;;;20.54;72.48;100594.28;4853477;28;102151;-60
2021/06/20 08:07:03;;;;;;;7.68;4.13;;;;;;;20.54;72.33;100588.75;4854126;28;102504;-60
2021/06/20 08:09:30;;;;;;;9.50;4.65;;;;;;;20.53;72.44;100587.97;4871016;28;102438;-60
2021/06/20 08:11:59;;;;;;;9.20;4.07;;;;;;;20.53;72.27;100598.22;4850487;28;103933;-60
2021/06/20 08:14:26;;;;;;;7.38;4.00;;;;;;;20.52;72.32;100589.13;4846973;28;102440;-60
2021/06/20 08:16:53;;;;;;;4.88;3.25;;;;;;;20.53;72.25;100592.69;4852541;28;102453;-60
2021/06/20 08:19:20;;;;;;;10.63;4.10;;;;;;;20.52;72.47;100599.34;4854637;28;105054;-60
2021/06/20 08:21:47;;;;;;;7.32;4.07;;;;;;;20.52;72.49;100602.09;4856789;28;104120;-60
2021/06/20 08:24:14;;;;;;;7.88;3.85;;;;;;;20.53;72.64;100598.22;4851474;28;102621;-60
2021/06/20 08:26:41;;;;;;;9.82;4.22;;;;;;;20.53;72.44;100603.75;4853593;28;102898;-63
2021/06/20 08:29:09;;;;;;;17.45;4.57;;;;;;;20.56;72.98;100600.28;4849500;28;102624;-64
2021/06/20 08:31:36;;;;;;;16.60;4.43;;;;;;;20.61;72.78;100605.59;4853046;28;103735;-65
2021/06/20 08:34:02;;;;;;;30.73;4.20;;;;;;;20.61;72.56;100611.13;4852707;28;102136;-61
2021/06/20 08:36:29;;;;;;;11.65;3.42;;;;;;;20.61;72.54;100605.59;4846704;28;102625;-60
2021/06/20 08:38:56;;;;;;;14.48;3.42;;;;;;;20.61;72.51;100611.13;4850358;28;102295;-60
2021/06/20 08:41:22;;;;;;;10.40;4.32;;;;;;;20.61;72.43;100600.06;4847961;28;103844;-60
2021/06/20 08:43:49;;;;;;;21.52;4.68;;;;;;;20.61;72.77;100600.06;4853867;28;103240;-60
2021/06/20 08:46:18;;;;;;;14.43;3.78;;;;;;;20.58;72.68;100587.72;4852150;28;102116;-60
2021/06/20 08:48:45;;;;;;;;;;;;;;;20.59;72.80;100602.34;4861296;28;102993;-59
2021/06/20 08:51:11;;;;;;;14.73;4.63;;;;;;;20.58;72.79;100595.22;4854715;28;103762;-60
2021/06/20 08:53:40;;;;;;;;;;;;;;;20.58;72.71;100600.75;4848903;28;102693;-59
2021/06/20 08:56:06;;;;;;;9.27;4.13;;;;;;;20.56;72.46;100603.88;4851186;28;102680;-60
2021/06/20 08:58:34;;;;;;;14.82;5.00;;;;;;;20.55;72.56;100601.44;4854385;28;102834;-60
2021/06/20 09:01:03;;;;;;;11.27;3.70;;;;;;;20.55;72.59;100605.00;4850744;28;103915;-60
2021/06/20 09:03:38;;;;;;;13.35;4.43;;;;;;;20.56;72.67;100594.78;4846571;28;102672;-60
2021/06/20 09:06:14;;;;;;;11.73;5.10;;;;;;;20.54;72.59;100594.28;4855942;23;102716;-85
2021/06/20 09:08:50;;;;;;;10.52;4.50;;;;;;;20.53;72.64;100598.22;4848259;28;102140;-86
2021/06/20 09:11:25;;;;;;;16.92;5.03;;;;;;;20.53;72.61;100598.22;4850422;28;102885;-86
2021/06/20 09:14:00;;;;;;;15.43;5.75;;;;;;;20.53;72.63;100598.22;4845229;29;102831;-86
2021/06/20 09:16:27;;;;;;;9.93;4.18;;;;;;;20.54;72.62;100595.09;4849722;28;102548;-85
2021/06/20 09:18:55;;;;;;;14.82;4.65;;;;;;;20.57;72.68;100599.94;4852501;28;102317;-84
2021/06/20 09:21:26;;;;;;;15.43;4.85;;;;;;;20.60;72.77;100598.47;4850822;28;102937;-88
2021/06/20 09:23:53;;;;;;;21.77;5.13;;;;;;;20.62;72.76;100609.97;4843319;28;102633;-84
2021/06/20 09:26:33;;;;;;;15.48;4.50;;;;;;;20.64;72.91;100615.97;4849681;28;102658;-83
2021/06/20 09:29:00;;;;;;;17.83;4.50;;;;;;;20.66;72.93;100613.66;4853586;28;102097;-83
2021/06/20 09:31:43;;;;;;;16.27;4.70;;;;;;;20.70;73.73;100620.16;4856305;28;104613;-84
2021/06/20 09:34:40;;;;;;;26.90;5.63;;;;;;;20.76;74.37;100624.28;4848603;28;102907;-86
2021/06/20 09:37:06;;;;;;;34.08;6.30;;;;;;;20.81;74.04;100623.28;4866244;28;102678;-86
2021/06/20 09:39:33;;;;;;;23.67;5.13;;;;;;;20.80;73.44;100618.88;4837071;28;103609;-86
2021/06/20 09:42:02;;;;;;;25.08;5.07;;;;;;;20.80;73.58;100619.69;4842442;29;105342;-86
2021/06/20 09:44:33;;;;;;;22.45;4.75;;;;;;;20.83;73.91;100616.25;4845268;28;102014;-84
2021/06/20 09:47:00;;;;;;;31.52;4.78;;;;;;;20.85;73.93;100613.94;4842126;28;102399;-83
2021/06/20 09:49:32;;;;;;;29.77;5.60;;;;;;;20.85;73.51;100602.88;4861086;28;102260;-87
2021/06/20 09:55:15;;;;;;;26.88;4.68;;;;;;;20.93;73.77;100587.34;4847579;28;102696;-84
2021/06/20 09:57:47;;;;;;;20.90;4.60;;;;;;;20.95;73.47;100573.16;4832114;28;103654;-89
2021/06/20 10:00:15;;;;;;;20.00;4.63;;;;;;;20.91;73.56;100569.47;4854663;28;102261;-83
2021/06/20 10:02:43;;;;;;;19.65;4.57;;;;;;;20.91;73.22;100563.91;4850913;28;102221;-84
2021/06/20 10:05:12;;;;;;;19.90;4.30;;;;;;;20.91;73.49;100555.63;4856866;28;103352;-84
2021/06/20 10:07:39;;;;;;;31.50;5.05;;;;;;;20.92;73.57;100562.78;4836595;28;102884;-83
2021/06/20 10:10:08;;;;;;;21.80;4.20;;;;;;;20.90;73.38;100557.59;4858187;28;102279;-83
2021/06/20 10:12:54;;;;;;;22.80;4.50;;;;;;;20.92;73.62;100557.25;4860217;28;102750;-83
2021/06/20 10:15:28;;;;;;;25.90;4.88;;;;;;;20.92;73.10;100549.75;4857765;28;102178;-82
2021/06/20 10:17:58;;;;;;;26.45;5.15;;;;;;;20.92;73.37;100560.03;4859381;28;102135;-82
2021/06/20 10:20:34;;;;;;;18.75;4.43;;;;;;;20.90;73.39;100556.78;4856149;28;102445;-82
2021/06/20 10:23:02;;;;;;;16.88;4.65;;;;;;;20.91;73.16;100550.09;4850228;28;103888;-83
2021/06/20 10:25:31;;;;;;;19.57;4.90;;;;;;;20.90;73.37;100556.78;4853488;28;102115;-83
2021/06/20 10:28:21;;;;;;;17.70;4.05;;;;;;;20.89;73.28;100561.50;4844603;28;102436;-82
2021/06/20 10:30:48;;;;;;;17.98;4.35;;;;;;;20.88;73.29;100552.41;4857691;28;102229;-84
2021/06/20 10:33:18;;;;;;;14.07;3.60;;;;;;;20.88;73.11;100559.91;4835888;29;103976;-82
2021/06/20 10:35:58;;;;;;;11.27;3.72;;;;;;;20.88;73.27;100555.19;4850923;28;102335;-82
2021/06/20 10:38:34;;;;;;;15.30;3.60;;;;;;;20.88;73.25;100559.91;4854330;28;102404;-82
2021/06/20 10:41:03;;;;;;;14.88;3.88;;;;;;;20.88;73.37;100546.09;4861583;28;102631;-82
2021/06/20 10:43:30;;;;;;;17.40;4.32;;;;;;;20.87;73.12;100552.75;4859583;28;103719;-83
2021/06/20 10:45:56;;;;;;;20.10;4.78;;;;;;;20.87;72.99;100556.31;4854323;28;102418;-82
2021/06/20 10:48:28;;;;;;;12.07;3.85;;;;;;;20.87;73.13;100564.59;4854746;28;102745;-85
2021/06/20 10:50:58;;;;;;;11.40;3.20;;;;;;;20.85;73.10;100561.41;4857776;28;103060;-83
2021/06/20 10:53:27;;;;;;;38.47;6.07;;;;;;;20.94;73.38;100569.56;4853626;28;103454;-83
2021/06/20 10:55:57;;;;;;;45.67;6.32;;;;;;;20.96;73.04;100566.47;4851849;29;102774;-85
2021/06/20 10:58:25;;;;;;;26.90;4.85;;;;;;;20.92;73.02;100563.59;4848529;28;102780;-83
2021/06/20 11:01:04;;;;;;;23.65;4.68;;;;;;;20.91;72.94;100566.69;4833348;29;102149;-82
2021/06/20 11:03:31;;;;;;;20.13;4.90;;;;;;;20.91;73.16;100563.91;4846574;28;103446;-83
2021/06/20 11:06:13;;;;;;;14.70;3.58;;;;;;;20.88;72.89;100566.25;4833628;29;102510;-83
2021/06/20 11:08:41;;;;;;;17.88;4.15;;;;;;;20.87;73.18;100564.59;4848766;28;102538;-82
2021/06/20 11:11:13;;;;;;;;;;;;;;;20.87;73.00;100572.91;4852357;28;102484;-82
2021/06/20 11:13:40;;;;;;;25.25;5.25;;;;;;;20.86;73.01;100573.25;4867186;28;102693;-81
2021/06/20 11:16:11;;;;;;;27.30;5.40;;;;;;;20.85;73.14;100569.69;4852307;28;102409;-83
2021/06/20 11:18:39;;;;;;;32.80;6.75;;;;;;;20.84;73.03;100570.84;4836460;28;103485;-82
2021/06/20 11:21:07;;;;;;;30.48;6.55;;;;;;;20.82;72.96;100570.38;4841445;28;103895;-82
2021/06/20 11:23:34;;;;;;;25.50;4.95;;;;;;;20.82;72.97;100573.16;4839080;28;102957;-82